createdAt,value
2023-01-29T00:01:13.164Z,10.60
2023-01-29T00:03:42.244Z,9.60
2023-01-29T00:06:12.222Z,11.30
2023-01-29T00:08:41.116Z,11.30
2023-01-29T00:11:10.463Z,12.70
2023-01-29T00:13:39.442Z,12.80
2023-01-29T00:16:09.098Z,11.00
2023-01-29T00:18:40.506Z,9.50
2023-01-29T00:21:10.956Z,8.40
2023-01-29T00:23:40.420Z,6.90
2023-01-29T00:26:10.109Z,9.80
2023-01-29T00:28:39.699Z,11.10
2023-01-29T00:31:10.212Z,9.60
2023-01-29T00:33:40.439Z,10.80
2023-01-29T00:36:14.258Z,8.50
2023-01-29T00:38:43.891Z,5.10
2023-01-29T00:41:33.544Z,5.00
2023-01-29T00:44:20.833Z,9.10
2023-01-29T00:46:52.042Z,6.80
2023-01-29T00:49:25.100Z,9.00
2023-01-29T00:52:12.213Z,9.10
2023-01-29T00:54:41.532Z,7.40
2023-01-29T00:57:10.411Z,9.70
2023-01-29T00:59:39.606Z,6.80
2023-01-29T01:02:26.641Z,11.80
2023-01-29T01:04:55.864Z,7.60
2023-01-29T01:07:29.514Z,6.70
2023-01-29T01:10:17.174Z,11.80
2023-01-29T01:12:47.807Z,6.10
2023-01-29T01:15:17.280Z,9.20
2023-01-29T01:17:48.337Z,6.10
2023-01-29T01:20:18.106Z,7.10
2023-01-29T01:22:47.133Z,7.30
2023-01-29T01:25:17.141Z,7.80
2023-01-29T01:27:46.663Z,6.70
2023-01-29T01:30:17.450Z,8.10
2023-01-29T01:32:46.792Z,9.40
2023-01-29T01:35:16.057Z,7.40
2023-01-29T01:37:44.936Z,8.60
2023-01-29T01:40:20.554Z,10.60
2023-01-29T01:42:51.568Z,9.20
2023-01-29T01:45:25.419Z,10.70
2023-01-29T01:47:59.565Z,8.30
2023-01-29T01:50:34.560Z,7.50
2023-01-29T01:53:07.870Z,9.00
2023-01-29T01:55:41.090Z,8.20
2023-01-29T01:58:15.855Z,8.70
2023-01-29T02:00:45.256Z,9.60
2023-01-29T02:03:33.108Z,6.50
2023-01-29T02:06:20.511Z,7.20
2023-01-29T02:09:14.752Z,6.30
2023-01-29T02:11:43.577Z,10.90
2023-01-29T02:14:13.647Z,10.40
2023-01-29T02:16:44.176Z,12.50
2023-01-29T02:19:32.905Z,8.70
2023-01-29T02:22:12.469Z,10.30
2023-01-29T02:25:20.966Z,10.10
2023-01-29T02:28:16.163Z,11.50
2023-01-29T02:30:50.530Z,11.40
2023-01-29T02:33:32.070Z,12.70
2023-01-29T02:36:12.139Z,11.10
2023-01-29T02:38:50.213Z,8.50
2023-01-29T02:41:28.858Z,8.30
2023-01-29T02:44:05.858Z,11.70
2023-01-29T02:46:39.744Z,9.80
2023-01-29T02:49:17.999Z,9.60
2023-01-29T02:51:54.816Z,12.50
2023-01-29T02:54:32.411Z,14.50
2023-01-29T02:57:07.957Z,14.90
2023-01-29T02:59:44.053Z,10.10
2023-01-29T03:02:18.931Z,10.50
2023-01-29T03:04:55.117Z,11.20
2023-01-29T03:07:42.091Z,10.60
2023-01-29T03:10:19.557Z,11.40
2023-01-29T03:12:55.306Z,15.90
2023-01-29T03:15:29.307Z,9.50
2023-01-29T03:18:25.628Z,11.40
2023-01-29T03:21:03.556Z,14.80
2023-01-29T03:23:53.370Z,8.30
2023-01-29T03:26:43.547Z,11.20
2023-01-29T03:29:31.433Z,11.90
2023-01-29T03:32:05.248Z,13.60
2023-01-29T03:34:41.470Z,11.80
2023-01-29T03:37:19.099Z,9.90
2023-01-29T03:39:49.137Z,9.80
2023-01-29T03:42:29.473Z,10.80
2023-01-29T03:45:07.699Z,9.40
2023-01-29T03:47:46.837Z,9.30
2023-01-29T03:50:29.037Z,13.50
2023-01-29T03:53:09.075Z,11.50
2023-01-29T03:55:53.795Z,10.30
2023-01-29T03:58:29.536Z,9.80
2023-01-29T04:01:02.780Z,8.50
2023-01-29T04:03:37.318Z,9.60
2023-01-29T04:06:16.755Z,11.70
2023-01-29T04:09:11.858Z,10.70
2023-01-29T04:11:47.926Z,10.40
2023-01-29T04:14:19.378Z,12.00
2023-01-29T04:16:52.417Z,10.70
2023-01-29T04:19:41.730Z,9.10
2023-01-29T04:22:17.272Z,10.00
2023-01-29T04:24:48.546Z,8.40
2023-01-29T04:27:43.341Z,10.70
2023-01-29T04:30:26.172Z,9.00
2023-01-29T04:33:16.523Z,10.10
2023-01-29T04:36:05.610Z,10.00
2023-01-29T04:38:47.445Z,8.70
2023-01-29T04:41:26.017Z,8.20
2023-01-29T04:46:36.338Z,8.90
2023-01-29T04:49:18.515Z,11.30
2023-01-29T04:51:57.003Z,13.70
2023-01-29T04:57:10.315Z,10.10
2023-01-29T04:59:42.917Z,10.40
2023-01-29T05:02:13.223Z,9.00
2023-01-29T05:04:46.483Z,15.50
2023-01-29T05:07:17.708Z,9.40
2023-01-29T05:09:50.095Z,10.50
2023-01-29T05:12:20.210Z,11.90
2023-01-29T05:14:53.554Z,12.50
2023-01-29T05:17:26.486Z,8.00
2023-01-29T05:19:57.398Z,8.90
2023-01-29T05:22:29.824Z,11.70
2023-01-29T05:24:59.137Z,9.70
2023-01-29T05:27:53.145Z,12.40
2023-01-29T05:30:26.269Z,10.20
2023-01-29T05:32:56.845Z,9.50
2023-01-29T05:35:29.856Z,12.40
2023-01-29T05:38:00.000Z,9.90
2023-01-29T05:40:29.489Z,10.30
2023-01-29T05:42:59.532Z,13.80
2023-01-29T05:45:29.343Z,14.00
2023-01-29T05:48:01.208Z,9.10
2023-01-29T05:50:30.192Z,10.70
2023-01-29T05:53:01.962Z,11.80
2023-01-29T05:55:31.559Z,15.90
2023-01-29T05:58:00.415Z,11.80
2023-01-29T06:00:29.451Z,12.30
2023-01-29T06:03:01.546Z,15.40
2023-01-29T06:05:30.561Z,15.10
2023-01-29T06:08:00.580Z,9.60
2023-01-29T06:10:31.751Z,12.50
2023-01-29T06:13:00.861Z,13.80
2023-01-29T06:15:31.544Z,13.20
2023-01-29T06:18:00.967Z,15.10
2023-01-29T06:20:31.133Z,12.30
2023-01-29T06:23:02.419Z,13.00
2023-01-29T06:25:31.445Z,14.90
2023-01-29T06:28:01.067Z,14.00
2023-01-29T06:30:31.555Z,10.20
2023-01-29T06:33:02.204Z,15.00
2023-01-29T06:35:31.829Z,13.60
2023-01-29T06:38:01.435Z,15.80
2023-01-29T06:40:30.694Z,14.30
2023-01-29T06:43:00.968Z,14.80
2023-01-29T06:45:32.103Z,14.30
2023-01-29T06:48:01.926Z,13.30
2023-01-29T06:50:32.872Z,13.60
2023-01-29T06:53:02.021Z,14.80
2023-01-29T06:55:31.245Z,14.30
2023-01-29T06:58:00.417Z,16.70
2023-01-29T07:00:31.499Z,9.80
2023-01-29T07:03:01.771Z,16.30
2023-01-29T07:05:31.663Z,15.60
2023-01-29T07:08:00.660Z,19.70
2023-01-29T07:10:29.961Z,13.50
2023-01-29T07:13:01.700Z,12.20
2023-01-29T07:15:32.140Z,10.20
2023-01-29T07:18:04.245Z,15.20
2023-01-29T07:20:33.281Z,15.40
2023-01-29T07:23:02.213Z,12.60
2023-01-29T07:25:31.148Z,14.70
2023-01-29T07:28:02.060Z,11.10
2023-01-29T07:30:39.101Z,12.60
2023-01-29T07:33:11.329Z,10.40
2023-01-29T07:35:42.129Z,11.30
2023-01-29T07:38:16.382Z,9.40
2023-01-29T07:40:45.400Z,15.40
2023-01-29T07:43:17.441Z,16.30
2023-01-29T07:45:48.059Z,11.80
2023-01-29T07:48:20.158Z,11.20
2023-01-29T07:50:57.030Z,13.60
2023-01-29T07:53:27.834Z,14.20
2023-01-29T07:55:57.539Z,15.10
2023-01-29T07:58:27.790Z,13.60
2023-01-29T08:00:59.684Z,15.30
2023-01-29T08:03:28.907Z,15.10
2023-01-29T08:06:00.284Z,13.70
2023-01-29T08:08:31.073Z,13.20
2023-01-29T08:11:02.213Z,15.60
2023-01-29T08:13:31.145Z,16.90
2023-01-29T08:16:03.356Z,12.70
2023-01-29T08:18:32.662Z,14.10
2023-01-29T08:21:02.056Z,16.70
2023-01-29T08:23:31.083Z,13.70
2023-01-29T08:26:01.932Z,14.50
2023-01-29T08:28:30.781Z,17.10
2023-01-29T08:30:59.792Z,35.10
2023-01-29T08:33:38.397Z,33.00
2023-01-29T08:36:10.375Z,14.40
2023-01-29T08:38:39.347Z,14.60
2023-01-29T08:41:10.807Z,16.40
2023-01-29T08:43:42.459Z,13.80
2023-01-29T08:46:11.387Z,16.80
2023-01-29T08:48:40.155Z,16.50
2023-01-29T08:51:09.863Z,18.50
2023-01-29T08:53:38.598Z,17.50
2023-01-29T08:56:08.548Z,15.00
2023-01-29T08:58:37.238Z,16.90
2023-01-29T09:01:10.796Z,16.90
2023-01-29T09:03:40.433Z,21.00
2023-01-29T09:06:11.634Z,17.50
2023-01-29T09:08:41.375Z,24.50
2023-01-29T09:11:10.694Z,20.60
2023-01-29T09:13:39.455Z,18.00
2023-01-29T09:16:09.270Z,16.20
2023-01-29T09:18:38.099Z,13.80
2023-01-29T09:21:07.502Z,14.90
2023-01-29T09:23:36.180Z,14.10
2023-01-29T09:26:07.014Z,13.50
2023-01-29T09:28:36.233Z,19.40
2023-01-29T09:31:05.331Z,15.20
2023-01-29T09:33:34.827Z,14.20
2023-01-29T09:36:05.037Z,13.00
2023-01-29T09:38:34.290Z,22.30
2023-01-29T09:41:13.223Z,14.90
2023-01-29T09:43:47.820Z,17.20
2023-01-29T09:46:22.788Z,18.70
2023-01-29T09:49:01.257Z,21.60
2023-01-29T09:51:35.839Z,15.80
2023-01-29T09:54:17.296Z,18.20
2023-01-29T09:56:48.250Z,18.90
2023-01-29T09:59:21.478Z,14.10
2023-01-29T10:01:59.740Z,14.20
2023-01-29T10:07:22.492Z,15.40
2023-01-29T10:10:07.214Z,17.50
2023-01-29T10:12:53.245Z,18.10
2023-01-29T10:15:39.158Z,14.80
2023-01-29T10:18:30.322Z,15.20
2023-01-29T10:21:12.579Z,20.50
2023-01-29T10:23:46.550Z,15.40
2023-01-29T10:26:15.774Z,19.70
2023-01-29T10:28:49.637Z,15.00
2023-01-29T10:31:24.803Z,13.40
2023-01-29T10:34:02.746Z,17.10
2023-01-29T10:36:38.995Z,13.10
2023-01-29T10:39:18.395Z,14.20
2023-01-29T10:42:00.982Z,16.80
2023-01-29T10:44:44.345Z,9.50
2023-01-29T10:47:32.725Z,12.70
2023-01-29T10:50:18.635Z,13.80
2023-01-29T10:53:17.058Z,16.00
2023-01-29T10:55:58.388Z,14.70
2023-01-29T10:58:34.400Z,14.70
2023-01-29T11:01:04.020Z,11.60
2023-01-29T11:03:34.305Z,12.00
2023-01-29T11:06:12.639Z,17.00
2023-01-29T11:11:17.091Z,18.50
2023-01-29T11:13:54.171Z,14.70
2023-01-29T11:16:24.990Z,17.90
2023-01-29T11:18:57.434Z,12.20
2023-01-29T11:21:29.636Z,16.30
2023-01-29T11:24:16.333Z,15.70
2023-01-29T11:26:48.594Z,17.50
2023-01-29T11:29:42.031Z,15.00
2023-01-29T11:32:17.597Z,16.00
2023-01-29T11:35:04.622Z,17.90
2023-01-29T11:37:36.538Z,15.10
2023-01-29T11:40:41.810Z,16.60
2023-01-29T11:43:26.200Z,19.90
2023-01-29T11:46:06.373Z,17.40
2023-01-29T11:48:46.135Z,11.00
2023-01-29T11:51:28.124Z,19.10
2023-01-29T11:54:21.790Z,19.00
2023-01-29T11:56:55.788Z,17.50
2023-01-29T11:59:38.463Z,15.20
2023-01-29T12:02:20.700Z,16.10
2023-01-29T12:04:51.208Z,13.40
2023-01-29T12:07:22.446Z,16.10
2023-01-29T12:09:54.966Z,21.10
2023-01-29T12:12:45.263Z,88.80
2023-01-29T12:15:25.217Z,27.50
2023-01-29T12:18:05.971Z,15.70
2023-01-29T12:20:46.260Z,16.80
2023-01-29T12:23:33.181Z,16.70
2023-01-29T12:26:15.535Z,21.60
2023-01-29T12:28:59.999Z,18.50
2023-01-29T12:31:36.877Z,17.20
2023-01-29T12:34:19.805Z,18.90
2023-01-29T12:36:53.028Z,13.10
2023-01-29T12:39:26.904Z,13.00
2023-01-29T12:42:07.721Z,18.00
2023-01-29T12:44:46.005Z,20.00
2023-01-29T12:47:19.465Z,19.10
2023-01-29T12:49:57.439Z,17.10
2023-01-29T12:52:39.352Z,16.50
2023-01-29T12:55:19.108Z,19.10
2023-01-29T12:57:54.372Z,17.70
2023-01-29T13:00:32.381Z,14.80
2023-01-29T13:03:10.919Z,16.80
2023-01-29T13:05:48.364Z,18.20
2023-01-29T13:08:32.143Z,17.60
2023-01-29T13:11:06.856Z,21.50
2023-01-29T13:14:09.149Z,21.70
2023-01-29T13:16:55.665Z,21.30
2023-01-29T13:19:30.424Z,18.00
2023-01-29T13:22:06.270Z,16.40
2023-01-29T13:24:39.907Z,21.10
2023-01-29T13:27:25.714Z,20.00
2023-01-29T13:30:02.332Z,17.40
2023-01-29T13:32:39.589Z,21.20
2023-01-29T13:35:18.641Z,22.70
2023-01-29T13:37:54.183Z,56.60
2023-01-29T13:40:31.024Z,94.60
2023-01-29T13:43:02.290Z,57.10
2023-01-29T13:45:43.209Z,65.40
2023-01-29T13:48:26.059Z,44.70
2023-01-29T13:51:03.344Z,63.90
2023-01-29T13:53:38.266Z,28.10
2023-01-29T13:56:43.023Z,25.40
2023-01-29T13:59:45.197Z,25.90
2023-01-29T14:02:31.109Z,21.80
2023-01-29T14:05:47.809Z,20.40
2023-01-29T14:08:39.351Z,21.60
2023-01-29T14:11:35.240Z,18.60
2023-01-29T14:14:46.639Z,31.00
2023-01-29T14:22:32.633Z,30.10
2023-01-29T14:25:05.361Z,18.40
2023-01-29T14:27:36.905Z,21.40
2023-01-29T14:30:18.518Z,25.80
2023-01-29T14:32:52.210Z,25.90
2023-01-29T14:35:27.490Z,19.50
2023-01-29T14:38:02.510Z,24.50
2023-01-29T14:40:36.366Z,16.30
2023-01-29T14:43:08.239Z,41.40
2023-01-29T14:45:39.248Z,36.80
2023-01-29T14:48:48.682Z,27.50
2023-01-29T14:51:27.843Z,25.80
2023-01-29T14:54:06.363Z,29.10
2023-01-29T14:56:58.145Z,26.50
2023-01-29T14:59:57.297Z,32.00
2023-01-29T15:02:39.571Z,37.10
2023-01-29T15:05:17.300Z,27.20
2023-01-29T15:07:55.024Z,31.70
2023-01-29T15:10:38.165Z,36.80
2023-01-29T15:13:15.919Z,37.30
2023-01-29T15:15:52.066Z,32.90
2023-01-29T15:18:34.838Z,47.70
2023-01-29T15:21:11.170Z,34.50
2023-01-29T15:23:40.739Z,43.00
2023-01-29T15:26:17.161Z,28.70
2023-01-29T15:29:03.068Z,25.20
2023-01-29T15:31:36.095Z,21.40
2023-01-29T15:34:07.437Z,27.20
2023-01-29T15:36:39.644Z,26.90
2023-01-29T15:39:18.144Z,30.60
2023-01-29T15:44:23.127Z,30.60
2023-01-29T15:46:59.593Z,26.10
2023-01-29T15:49:35.134Z,34.20
2023-01-29T15:52:07.936Z,29.60
2023-01-29T15:54:42.106Z,29.20
2023-01-29T15:57:17.882Z,28.90
2023-01-29T15:59:51.562Z,30.90
2023-01-29T16:02:29.786Z,31.60
2023-01-29T16:05:00.075Z,33.10
2023-01-29T16:07:29.920Z,31.60
2023-01-29T16:10:00.489Z,34.60
2023-01-29T16:12:31.148Z,34.10
2023-01-29T16:15:00.842Z,29.90
2023-01-29T16:17:35.124Z,34.10
2023-01-29T16:20:08.048Z,41.20
2023-01-29T16:22:41.723Z,34.90
2023-01-29T16:25:16.197Z,36.00
2023-01-29T16:27:45.837Z,28.40
2023-01-29T16:30:25.840Z,32.60
2023-01-29T16:33:03.793Z,29.90
2023-01-29T16:35:36.614Z,32.50
2023-01-29T16:38:17.545Z,32.30
2023-01-29T16:41:07.903Z,40.20
2023-01-29T16:43:53.102Z,40.70
2023-01-29T16:46:28.670Z,35.20
2023-01-29T16:48:59.174Z,34.30
2023-01-29T16:51:30.252Z,35.80
2023-01-29T16:54:11.048Z,38.20
2023-01-29T16:56:40.817Z,36.10
2023-01-29T16:59:18.630Z,38.90
2023-01-29T17:01:48.964Z,37.40
2023-01-29T17:04:20.093Z,31.70
2023-01-29T17:06:55.750Z,37.60
2023-01-29T17:09:31.378Z,43.60
2023-01-29T17:12:04.401Z,46.70
2023-01-29T17:14:43.624Z,43.90
2023-01-29T17:17:18.022Z,64.40
2023-01-29T17:19:53.293Z,49.80
2023-01-29T17:22:26.127Z,59.40
2023-01-29T17:24:54.955Z,65.10
2023-01-29T17:27:32.626Z,45.40
2023-01-29T17:30:01.457Z,33.60
2023-01-29T17:32:44.304Z,50.70
2023-01-29T17:35:18.485Z,35.20
2023-01-29T17:37:47.925Z,34.40
2023-01-29T17:40:33.032Z,36.00
2023-01-29T17:43:01.719Z,36.40
2023-01-29T17:45:30.642Z,39.10
2023-01-29T17:47:59.923Z,37.60
2023-01-29T17:50:32.042Z,32.10
2023-01-29T17:53:05.111Z,35.40
2023-01-29T17:55:35.739Z,35.90
2023-01-29T17:58:15.165Z,37.50
2023-01-29T18:00:43.828Z,40.80
2023-01-29T18:03:12.633Z,36.50
2023-01-29T18:05:43.536Z,38.80
2023-01-29T18:08:17.771Z,41.50
2023-01-29T18:10:47.374Z,39.90
2023-01-29T18:13:16.719Z,94.60
2023-01-29T18:15:48.208Z,50.40
2023-01-29T18:18:22.479Z,42.60
2023-01-29T18:20:52.115Z,37.30
2023-01-29T18:23:22.272Z,40.00
2023-01-29T18:25:52.396Z,44.40
2023-01-29T18:28:21.437Z,37.10
2023-01-29T18:30:53.333Z,37.80
2023-01-29T18:33:28.827Z,33.00
2023-01-29T18:36:00.783Z,40.60
2023-01-29T18:38:35.733Z,43.30
2023-01-29T18:41:15.186Z,43.30
2023-01-29T18:43:49.385Z,45.30
2023-01-29T18:46:26.568Z,47.60
2023-01-29T18:49:06.298Z,42.60
2023-01-29T18:51:45.320Z,40.60
2023-01-29T18:57:13.272Z,42.30
2023-01-29T18:59:51.659Z,37.50
2023-01-29T19:02:28.063Z,40.70
2023-01-29T19:05:03.262Z,53.10
2023-01-29T19:07:36.851Z,50.30
2023-01-29T19:10:18.886Z,49.20
2023-01-29T19:12:54.962Z,42.00
2023-01-29T19:15:32.276Z,40.00
2023-01-29T19:18:08.980Z,44.40
2023-01-29T19:20:45.371Z,41.60
2023-01-29T19:23:21.931Z,31.30
2023-01-29T19:25:59.133Z,35.80
2023-01-29T19:28:42.115Z,42.60
2023-01-29T19:31:17.526Z,37.00
2023-01-29T19:34:08.411Z,42.10
2023-01-29T19:36:50.307Z,36.00
2023-01-29T19:39:34.644Z,42.10
2023-01-29T19:42:08.877Z,40.30
2023-01-29T19:44:47.987Z,34.40
2023-01-29T19:47:26.912Z,40.00
2023-01-29T19:50:01.965Z,36.40
2023-01-29T19:52:51.263Z,38.70
2023-01-29T19:55:30.101Z,37.60
2023-01-29T19:58:05.694Z,37.50
2023-01-29T20:00:45.307Z,44.70
2023-01-29T20:03:27.916Z,42.30
2023-01-29T20:06:07.712Z,35.80
2023-01-29T20:08:46.652Z,42.60
2023-01-29T20:11:26.024Z,41.70
2023-01-29T20:14:06.873Z,40.50
2023-01-29T20:16:42.141Z,40.30
2023-01-29T20:19:20.801Z,43.50
2023-01-29T20:21:56.595Z,39.70
2023-01-29T20:24:39.649Z,38.50
2023-01-29T20:27:12.469Z,34.50
2023-01-29T20:29:50.028Z,35.00
2023-01-29T20:32:42.997Z,34.00
2023-01-29T20:35:20.433Z,30.30
2023-01-29T20:37:56.198Z,32.70
2023-01-29T20:40:31.350Z,36.90
2023-01-29T20:43:05.034Z,40.00
2023-01-29T20:45:35.625Z,39.00
2023-01-29T20:48:06.764Z,34.70
2023-01-29T20:50:42.388Z,34.70
2023-01-29T20:53:12.992Z,37.60
2023-01-29T20:55:47.007Z,35.20
2023-01-29T20:58:19.011Z,35.90
2023-01-29T21:00:56.403Z,35.60
2023-01-29T21:03:29.253Z,34.20
2023-01-29T21:05:59.460Z,36.60
2023-01-29T21:08:30.747Z,35.90
2023-01-29T21:11:05.542Z,37.20
2023-01-29T21:13:37.473Z,35.60
2023-01-29T21:16:11.597Z,40.10
2023-01-29T21:18:43.938Z,34.80
2023-01-29T21:21:15.149Z,37.60
2023-01-29T21:23:44.984Z,38.50
2023-01-29T21:26:15.701Z,34.60
2023-01-29T21:28:46.726Z,36.80
2023-01-29T21:31:18.672Z,32.40
2023-01-29T21:33:51.282Z,35.00
2023-01-29T21:36:22.900Z,32.80
2023-01-29T21:38:57.751Z,33.70
2023-01-29T21:41:43.744Z,28.70
2023-01-29T21:44:16.066Z,32.30
2023-01-29T21:46:45.259Z,30.40
2023-01-29T21:49:17.014Z,32.90
2023-01-29T21:51:48.468Z,35.30
2023-01-29T21:54:21.634Z,35.50
2023-01-29T21:56:56.835Z,32.00
2023-01-29T21:59:32.623Z,31.80
2023-01-29T22:02:04.186Z,34.60
2023-01-29T22:04:38.600Z,34.20
2023-01-29T22:07:09.757Z,32.20
2023-01-29T22:09:40.609Z,37.00
2023-01-29T22:12:12.019Z,38.50
2023-01-29T22:14:43.187Z,36.90
2023-01-29T22:17:12.795Z,35.20
2023-01-29T22:19:52.328Z,33.60
2023-01-29T22:22:27.335Z,37.10
2023-01-29T22:25:00.666Z,41.40
2023-01-29T22:27:35.123Z,37.50
2023-01-29T22:30:08.559Z,39.70
2023-01-29T22:32:44.603Z,38.30
2023-01-29T22:35:35.077Z,36.30
2023-01-29T22:38:10.259Z,31.60
2023-01-29T22:40:49.506Z,36.50
2023-01-29T22:43:21.440Z,31.30
2023-01-29T22:46:01.343Z,31.30
2023-01-29T22:48:36.931Z,30.10
2023-01-29T22:51:13.506Z,33.80
2023-01-29T22:53:48.562Z,33.10
2023-01-29T22:56:21.656Z,36.80
2023-01-29T22:58:57.330Z,36.00
2023-01-29T23:01:30.782Z,30.10
2023-01-29T23:03:59.744Z,31.00
2023-01-29T23:06:28.487Z,27.10
2023-01-29T23:08:57.573Z,31.00
2023-01-29T23:11:28.794Z,35.60
2023-01-29T23:13:59.341Z,29.00
2023-01-29T23:16:29.608Z,35.20
2023-01-29T23:18:58.616Z,31.40
2023-01-29T23:21:28.843Z,33.50
2023-01-29T23:23:59.027Z,33.00
2023-01-29T23:26:47.387Z,30.40
2023-01-29T23:29:16.577Z,32.00
2023-01-29T23:31:45.327Z,31.90
2023-01-29T23:34:14.544Z,24.40
2023-01-29T23:36:43.977Z,30.80
2023-01-29T23:39:12.989Z,29.90
2023-01-29T23:41:41.650Z,30.20
2023-01-29T23:44:10.605Z,28.10
2023-01-29T23:46:40.203Z,25.80
2023-01-29T23:49:09.241Z,27.10
2023-01-29T23:51:38.111Z,21.10
2023-01-29T23:54:07.253Z,25.10
2023-01-29T23:56:35.908Z,21.00
2023-01-29T23:59:04.921Z,28.00
